Terminal Aerodrome Forecast
Issued by NWS

Home | Current Version | Previous Version | Text Only | Print | Product List | Glossary On
Versions: 1 2 3 4 5 6 7 8 9 10 11 12 13 14 15 16 17 18 19 20 21 22 23 24 25 26
971
FTUS45 KGJT 272339
TAFMTJ
TAF
KMTJ 272339Z 2800/2824 21020G30KT P6SM VCSH SCT050 BKN130
     FM280300 23010KT 6SM -SHRASN OVC050
     FM280500 24007KT 4SM -SHSN BR OVC025
     FM281000 21006KT 2SM -SN BR OVC020
     FM281800 31009KT 4SM BR OVC020
     FM282200 31011KT P6SM BKN040=

USA.gov is the U.S. government's official web portal to all federal, state and local government web resources and services.